sensor_id;sensor_type;location;lat;lon;timestamp;pressure;altitude;pressure_sealevel;temperature;humidity
72525;BME280;60547;48.502;8.996;2023-06-14T00:00:07;97389.47;;;13.69;58.36
72525;BME280;60547;48.502;8.996;2023-06-14T00:02:33;97383.75;;;13.64;58.45
72525;BME280;60547;48.502;8.996;2023-06-14T00:04:58;97380.81;;;13.58;58.97
72525;BME280;60547;48.502;8.996;2023-06-14T00:07:35;97391.06;;;13.52;58.27
72525;BME280;60547;48.502;8.996;2023-06-14T00:10:04;97390.16;;;13.46;57.81
72525;BME280;60547;48.502;8.996;2023-06-14T00:12:30;97397.91;;;13.51;58.61
72525;BME280;60547;48.502;8.996;2023-06-14T00:14:56;97396.53;;;13.46;59.12
72525;BME280;60547;48.502;8.996;2023-06-14T00:17:22;97388.94;;;13.38;59.31
72525;BME280;60547;48.502;8.996;2023-06-14T00:19:48;97392.34;;;13.33;59.56
72525;BME280;60547;48.502;8.996;2023-06-14T00:22:13;97394.84;;;13.31;59.65
72525;BME280;60547;48.502;8.996;2023-06-14T00:24:39;97385.69;;;13.21;60.20
72525;BME280;60547;48.502;8.996;2023-06-14T00:27:04;97385.50;;;13.15;59.97
72525;BME280;60547;48.502;8.996;2023-06-14T00:29:30;97390.31;;;13.15;60.16
72525;BME280;60547;48.502;8.996;2023-06-14T00:31:56;97387.22;;;13.13;60.61
72525;BME280;60547;48.502;8.996;2023-06-14T00:34:21;97400.41;;;13.12;60.81
72525;BME280;60547;48.502;8.996;2023-06-14T00:36:47;97384.88;;;13.02;61.30
72525;BME280;60547;48.502;8.996;2023-06-14T00:39:12;97402.88;;;13.10;61.57
72525;BME280;60547;48.502;8.996;2023-06-14T00:41:39;97401.50;;;13.06;61.20
72525;BME280;60547;48.502;8.996;2023-06-14T00:44:05;97395.44;;;12.98;61.28
72525;BME280;60547;48.502;8.996;2023-06-14T00:46:30;97394.19;;;12.99;62.02
72525;BME280;60547;48.502;8.996;2023-06-14T00:48:56;97393.72;;;13.01;63.73
72525;BME280;60547;48.502;8.996;2023-06-14T00:51:24;97388.78;;;12.96;64.92
72525;BME280;60547;48.502;8.996;2023-06-14T00:53:50;97385.97;;;12.86;65.31
72525;BME280;60547;48.502;8.996;2023-06-14T00:56:16;97388.28;;;12.79;65.61
72525;BME280;60547;48.502;8.996;2023-06-14T00:58:42;97386.56;;;12.72;66.16
72525;BME280;60547;48.502;8.996;2023-06-14T01:01:08;97400.69;;;12.69;65.88
72525;BME280;60547;48.502;8.996;2023-06-14T01:03:34;97403.31;;;12.63;65.57
72525;BME280;60547;48.502;8.996;2023-06-14T01:06:08;97392.59;;;12.52;64.77
72525;BME280;60547;48.502;8.996;2023-06-14T01:08:47;97397.25;;;12.55;64.79
72525;BME280;60547;48.502;8.996;2023-06-14T01:11:22;97401.28;;;12.54;64.67
72525;BME280;60547;48.502;8.996;2023-06-14T01:13:51;97397.41;;;12.52;64.20
72525;BME280;60547;48.502;8.996;2023-06-14T01:16:19;97387.31;;;12.45;63.78
72525;BME280;60547;48.502;8.996;2023-06-14T01:18:45;97397.38;;;12.43;64.20
72525;BME280;60547;48.502;8.996;2023-06-14T01:21:24;97392.56;;;12.34;64.06
72525;BME280;60547;48.502;8.996;2023-06-14T01:23:49;97409.16;;;12.38;64.84
72525;BME280;60547;48.502;8.996;2023-06-14T01:26:22;97396.25;;;12.31;64.69
72525;BME280;60547;48.502;8.996;2023-06-14T01:28:49;97399.06;;;12.31;65.02
72525;BME280;60547;48.502;8.996;2023-06-14T01:31:20;97379.00;;;12.14;65.20
72525;BME280;60547;48.502;8.996;2023-06-14T01:33:48;97386.78;;;12.19;65.09
72525;BME280;60547;48.502;8.996;2023-06-14T01:36:16;97393.41;;;12.13;65.46
72525;BME280;60547;48.502;8.996;2023-06-14T01:38:44;97404.56;;;12.13;65.36
72525;BME280;60547;48.502;8.996;2023-06-14T01:41:09;97395.25;;;12.07;65.16
72525;BME280;60547;48.502;8.996;2023-06-14T01:43:35;97395.53;;;12.00;64.93
72525;BME280;60547;48.502;8.996;2023-06-14T01:46:02;97403.03;;;12.12;64.66
72525;BME280;60547;48.502;8.996;2023-06-14T01:48:28;97397.44;;;12.12;65.42
72525;BME280;60547;48.502;8.996;2023-06-14T01:50:54;97396.03;;;12.07;65.42
72525;BME280;60547;48.502;8.996;2023-06-14T01:53:19;97394.63;;;12.03;65.95
72525;BME280;60547;48.502;8.996;2023-06-14T01:55:46;97396.44;;;11.96;65.93
72525;BME280;60547;48.502;8.996;2023-06-14T01:58:14;97398.16;;;11.94;66.19
72525;BME280;60547;48.502;8.996;2023-06-14T02:00:41;97402.16;;;11.93;66.59
72525;BME280;60547;48.502;8.996;2023-06-14T02:03:08;97406.78;;;11.87;66.60
72525;BME280;60547;48.502;8.996;2023-06-14T02:05:34;97399.16;;;11.78;66.56
72525;BME280;60547;48.502;8.996;2023-06-14T02:08:00;97405.97;;;11.77;66.33
72525;BME280;60547;48.502;8.996;2023-06-14T02:10:26;97411.53;;;11.77;66.41
72525;BME280;60547;48.502;8.996;2023-06-14T02:12:51;97402.50;;;11.73;66.41
72525;BME280;60547;48.502;8.996;2023-06-14T02:15:17;97401.53;;;11.67;66.67
72525;BME280;60547;48.502;8.996;2023-06-14T02:17:44;97410.22;;;11.69;66.89
72525;BME280;60547;48.502;8.996;2023-06-14T02:20:10;97409.44;;;11.69;66.29
72525;BME280;60547;48.502;8.996;2023-06-14T02:22:36;97420.22;;;11.79;65.09
72525;BME280;60547;48.502;8.996;2023-06-14T02:25:02;97407.75;;;11.71;65.33
72525;BME280;60547;48.502;8.996;2023-06-14T02:27:27;97407.25;;;11.63;65.66
72525;BME280;60547;48.502;8.996;2023-06-14T02:29:53;97409.59;;;11.65;65.45
72525;BME280;60547;48.502;8.996;2023-06-14T02:32:18;97405.56;;;11.66;64.78
72525;BME280;60547;48.502;8.996;2023-06-14T02:34:44;97404.66;;;11.69;65.12
72525;BME280;60547;48.502;8.996;2023-06-14T02:37:09;97404.59;;;11.60;65.85
72525;BME280;60547;48.502;8.996;2023-06-14T02:39:36;97400.78;;;11.45;66.25
72525;BME280;60547;48.502;8.996;2023-06-14T02:42:02;97400.47;;;11.43;66.59
72525;BME280;60547;48.502;8.996;2023-06-14T02:44:27;97403.84;;;11.38;66.46
72525;BME280;60547;48.502;8.996;2023-06-14T02:46:54;97402.63;;;11.39;66.64
72525;BME280;60547;48.502;8.996;2023-06-14T02:49:21;97393.94;;;11.37;66.43
72525;BME280;60547;48.502;8.996;2023-06-14T02:51:46;97404.34;;;11.45;66.20
72525;BME280;60547;48.502;8.996;2023-06-14T02:54:12;97402.47;;;11.42;66.78
72525;BME280;60547;48.502;8.996;2023-06-14T02:56:37;97403.38;;;11.39;65.85
72525;BME280;60547;48.502;8.996;2023-06-14T02:59:03;97407.53;;;11.35;66.23
72525;BME280;60547;48.502;8.996;2023-06-14T03:01:29;97400.34;;;11.24;66.39
72525;BME280;60547;48.502;8.996;2023-06-14T03:04:02;97409.59;;;11.21;66.05
72525;BME280;60547;48.502;8.996;2023-06-14T03:06:31;97413.50;;;11.24;66.51
72525;BME280;60547;48.502;8.996;2023-06-14T03:08:57;97408.97;;;11.17;66.54
72525;BME280;60547;48.502;8.996;2023-06-14T03:11:28;97409.59;;;11.21;66.36
72525;BME280;60547;48.502;8.996;2023-06-14T03:13:53;97419.53;;;11.22;66.01
72525;BME280;60547;48.502;8.996;2023-06-14T03:16:20;97427.47;;;11.11;65.95
72525;BME280;60547;48.502;8.996;2023-06-14T03:18:49;97421.25;;;11.07;66.76
72525;BME280;60547;48.502;8.996;2023-06-14T03:21:14;97430.19;;;11.02;66.69
72525;BME280;60547;48.502;8.996;2023-06-14T03:23:42;97439.88;;;10.97;66.47
72525;BME280;60547;48.502;8.996;2023-06-14T03:26:08;97438.13;;;10.91;67.08
72525;BME280;60547;48.502;8.996;2023-06-14T03:28:33;97434.69;;;10.87;67.09
72525;BME280;60547;48.502;8.996;2023-06-14T03:30:59;97447.25;;;10.91;66.55
72525;BME280;60547;48.502;8.996;2023-06-14T03:33:25;97445.47;;;10.97;66.55
72525;BME280;60547;48.502;8.996;2023-06-14T03:35:51;97441.56;;;10.95;67.03
72525;BME280;60547;48.502;8.996;2023-06-14T03:38:17;97430.75;;;10.97;66.68
72525;BME280;60547;48.502;8.996;2023-06-14T03:40:42;97435.22;;;10.94;67.18
72525;BME280;60547;48.502;8.996;2023-06-14T03:43:08;97427.44;;;10.89;66.92
72525;BME280;60547;48.502;8.996;2023-06-14T03:45:33;97436.91;;;10.92;66.62
72525;BME280;60547;48.502;8.996;2023-06-14T03:47:59;97444.03;;;10.93;66.37
72525;BME280;60547;48.502;8.996;2023-06-14T03:50:27;97449.34;;;11.00;66.08
72525;BME280;60547;48.502;8.996;2023-06-14T03:52:53;97446.13;;;11.02;65.68
72525;BME280;60547;48.502;8.996;2023-06-14T03:55:19;97456.59;;;10.97;65.91
72525;BME280;60547;48.502;8.996;2023-06-14T03:57:44;97459.81;;;10.96;65.60
72525;BME280;60547;48.502;8.996;2023-06-14T04:00:10;97466.53;;;10.86;66.49
72525;BME280;60547;48.502;8.996;2023-06-14T04:02:37;97455.19;;;10.80;66.88
72525;BME280;60547;48.502;8.996;2023-06-14T04:05:03;97464.66;;;10.83;66.81
72525;BME280;60547;48.502;8.996;2023-06-14T04:07:28;97471.22;;;10.76;67.11
72525;BME280;60547;48.502;8.996;2023-06-14T04:09:54;97476.47;;;10.74;67.11
72525;BME280;60547;48.502;8.996;2023-06-14T04:12:20;97476.25;;;10.68;67.57
72525;BME280;60547;48.502;8.996;2023-06-14T04:14:45;97469.91;;;10.68;67.82
72525;BME280;60547;48.502;8.996;2023-06-14T04:17:11;97469.13;;;10.67;67.91
72525;BME280;60547;48.502;8.996;2023-06-14T04:19:36;97478.16;;;10.72;67.48
72525;BME280;60547;48.502;8.996;2023-06-14T04:22:02;97483.50;;;10.66;67.75
72525;BME280;60547;48.502;8.996;2023-06-14T04:24:31;97490.50;;;10.71;67.88
72525;BME280;60547;48.502;8.996;2023-06-14T04:27:00;97493.16;;;10.74;67.34
72525;BME280;60547;48.502;8.996;2023-06-14T04:29:27;97490.28;;;10.78;66.80
72525;BME280;60547;48.502;8.996;2023-06-14T04:31:55;97491.91;;;10.88;66.47
72525;BME280;60547;48.502;8.996;2023-06-14T04:34:28;97493.47;;;10.89;66.40
72525;BME280;60547;48.502;8.996;2023-06-14T04:36:59;97495.03;;;10.90;66.69
72525;BME280;60547;48.502;8.996;2023-06-14T04:39:26;97502.16;;;10.91;66.94
72525;BME280;60547;48.502;8.996;2023-06-14T04:41:53;97500.03;;;10.95;67.31
72525;BME280;60547;48.502;8.996;2023-06-14T04:44:23;97491.59;;;10.86;68.05
72525;BME280;60547;48.502;8.996;2023-06-14T04:46:49;97509.38;;;11.01;67.08
72525;BME280;60547;48.502;8.996;2023-06-14T04:49:15;97507.91;;;11.09;66.46
72525;BME280;60547;48.502;8.996;2023-06-14T04:51:41;97481.19;;;10.99;66.18
72525;BME280;60547;48.502;8.996;2023-06-14T04:54:08;97494.44;;;11.08;66.14
72525;BME280;60547;48.502;8.996;2023-06-14T04:56:38;97507.41;;;11.23;65.53
72525;BME280;60547;48.502;8.996;2023-06-14T04:59:04;97494.25;;;11.24;65.68
72525;BME280;60547;48.502;8.996;2023-06-14T05:01:32;97517.59;;;11.39;65.90
72525;BME280;60547;48.502;8.996;2023-06-14T05:03:58;97514.25;;;11.44;65.02
72525;BME280;60547;48.502;8.996;2023-06-14T05:06:24;97506.66;;;11.45;64.51
72525;BME280;60547;48.502;8.996;2023-06-14T05:08:51;97507.06;;;11.56;64.33
72525;BME280;60547;48.502;8.996;2023-06-14T05:11:16;97509.53;;;11.54;64.76
72525;BME280;60547;48.502;8.996;2023-06-14T05:13:42;97508.53;;;11.48;65.19
72525;BME280;60547;48.502;8.996;2023-06-14T05:16:10;97522.88;;;11.59;64.86
72525;BME280;60547;48.502;8.996;2023-06-14T05:18:36;97514.59;;;11.68;65.28
72525;BME280;60547;48.502;8.996;2023-06-14T05:21:02;97508.09;;;11.71;64.87
72525;BME280;60547;48.502;8.996;2023-06-14T05:23:29;97500.75;;;11.77;64.47
72525;BME280;60547;48.502;8.996;2023-06-14T05:25:55;97507.47;;;11.89;64.46
72525;BME280;60547;48.502;8.996;2023-06-14T05:28:22;97504.56;;;11.92;64.52
72525;BME280;60547;48.502;8.996;2023-06-14T05:30:48;97503.19;;;11.97;65.00
72525;BME280;60547;48.502;8.996;2023-06-14T05:33:13;97512.53;;;12.03;64.81
72525;BME280;60547;48.502;8.996;2023-06-14T05:35:39;97513.81;;;12.11;64.52
72525;BME280;60547;48.502;8.996;2023-06-14T05:38:04;97521.75;;;12.22;65.09
72525;BME280;60547;48.502;8.996;2023-06-14T05:40:31;97511.72;;;12.24;65.36
72525;BME280;60547;48.502;8.996;2023-06-14T05:42:56;97514.69;;;12.30;64.95
72525;BME280;60547;48.502;8.996;2023-06-14T05:45:21;97509.47;;;12.41;64.53
72525;BME280;60547;48.502;8.996;2023-06-14T05:47:47;97510.72;;;12.49;64.06
72525;BME280;60547;48.502;8.996;2023-06-14T05:50:12;97517.16;;;12.68;63.38
72525;BME280;60547;48.502;8.996;2023-06-14T05:52:38;97516.72;;;12.79;63.63
72525;BME280;60547;48.502;8.996;2023-06-14T05:55:04;97530.44;;;12.95;63.49
72525;BME280;60547;48.502;8.996;2023-06-14T05:57:30;97523.63;;;13.05;63.70
72525;BME280;60547;48.502;8.996;2023-06-14T05:59:55;97523.38;;;13.21;63.19
72525;BME280;60547;48.502;8.996;2023-06-14T06:02:21;97496.34;;;13.18;63.25
72525;BME280;60547;48.502;8.996;2023-06-14T06:04:46;97533.66;;;13.52;63.30
72525;BME280;60547;48.502;8.996;2023-06-14T06:07:12;97535.50;;;13.64;63.41
72525;BME280;60547;48.502;8.996;2023-06-14T06:09:37;97521.50;;;13.82;61.90
72525;BME280;60547;48.502;8.996;2023-06-14T06:12:06;97524.59;;;13.94;61.51
72525;BME280;60547;48.502;8.996;2023-06-14T06:14:32;97523.97;;;13.99;61.50
72525;BME280;60547;48.502;8.996;2023-06-14T06:16:57;97520.38;;;14.16;60.74
72525;BME280;60547;48.502;8.996;2023-06-14T06:19:23;97518.28;;;14.44;61.51
72525;BME280;60547;48.502;8.996;2023-06-14T06:21:48;97515.91;;;14.61;59.52
72525;BME280;60547;48.502;8.996;2023-06-14T06:24:14;97526.06;;;14.82;60.37
72525;BME280;60547;48.502;8.996;2023-06-14T06:26:40;97542.59;;;15.04;58.87
72525;BME280;60547;48.502;8.996;2023-06-14T06:29:06;97531.66;;;15.15;58.29
72525;BME280;60547;48.502;8.996;2023-06-14T06:31:31;97528.38;;;15.41;58.62
72525;BME280;60547;48.502;8.996;2023-06-14T06:33:57;97535.84;;;15.82;56.14
72525;BME280;60547;48.502;8.996;2023-06-14T06:36:22;97534.34;;;16.11;54.50
72525;BME280;60547;48.502;8.996;2023-06-14T06:38:48;97525.13;;;16.69;53.39
72525;BME280;60547;48.502;8.996;2023-06-14T06:41:13;97533.19;;;17.11;52.58
72525;BME280;60547;48.502;8.996;2023-06-14T06:43:39;97535.94;;;17.26;51.73
72525;BME280;60547;48.502;8.996;2023-06-14T06:46:04;97541.78;;;17.43;50.92
72525;BME280;60547;48.502;8.996;2023-06-14T06:48:30;97532.50;;;17.37;51.82
72525;BME280;60547;48.502;8.996;2023-06-14T06:50:56;97534.47;;;17.31;50.39
72525;BME280;60547;48.502;8.996;2023-06-14T06:53:21;97541.78;;;17.43;50.65
72525;BME280;60547;48.502;8.996;2023-06-14T06:55:47;97529.13;;;17.73;49.86
72525;BME280;60547;48.502;8.996;2023-06-14T06:58:13;97532.47;;;17.98;50.48
72525;BME280;60547;48.502;8.996;2023-06-14T07:00:39;97528.50;;;18.10;49.52
72525;BME280;60547;48.502;8.996;2023-06-14T07:03:04;97522.88;;;18.10;49.09
72525;BME280;60547;48.502;8.996;2023-06-14T07:05:30;97537.50;;;18.14;48.79
72525;BME280;60547;48.502;8.996;2023-06-14T07:07:55;97532.88;;;18.11;49.08
72525;BME280;60547;48.502;8.996;2023-06-14T07:10:21;97542.72;;;18.21;49.18
72525;BME280;60547;48.502;8.996;2023-06-14T07:12:47;97539.66;;;18.25;48.45
72525;BME280;60547;48.502;8.996;2023-06-14T07:15:12;97520.28;;;18.32;48.55
72525;BME280;60547;48.502;8.996;2023-06-14T07:17:38;97539.28;;;18.37;48.59
72525;BME280;60547;48.502;8.996;2023-06-14T07:20:04;97547.06;;;18.22;48.60
72525;BME280;60547;48.502;8.996;2023-06-14T07:22:40;97542.38;;;18.39;48.47
72525;BME280;60547;48.502;8.996;2023-06-14T07:25:12;97561.06;;;18.63;48.33
72525;BME280;60547;48.502;8.996;2023-06-14T07:27:42;97557.28;;;18.71;46.87
72525;BME280;60547;48.502;8.996;2023-06-14T07:30:08;97559.91;;;18.81;46.49
72525;BME280;60547;48.502;8.996;2023-06-14T07:32:34;97555.63;;;18.91;45.83
72525;BME280;60547;48.502;8.996;2023-06-14T07:34:59;97557.34;;;19.14;45.29
72525;BME280;60547;48.502;8.996;2023-06-14T07:37:25;97554.81;;;19.22;44.87
72525;BME280;60547;48.502;8.996;2023-06-14T07:39:50;97560.53;;;19.33;44.88
72525;BME280;60547;48.502;8.996;2023-06-14T07:42:16;97555.41;;;19.37;44.80
72525;BME280;60547;48.502;8.996;2023-06-14T07:44:41;97549.31;;;19.44;44.58
72525;BME280;60547;48.502;8.996;2023-06-14T07:47:07;97558.56;;;19.50;43.67
72525;BME280;60547;48.502;8.996;2023-06-14T07:49:32;97552.88;;;19.39;43.41
72525;BME280;60547;48.502;8.996;2023-06-14T07:51:58;97546.28;;;19.53;43.42
72525;BME280;60547;48.502;8.996;2023-06-14T07:54:24;97547.94;;;19.77;44.46
72525;BME280;60547;48.502;8.996;2023-06-14T07:56:52;97542.06;;;19.91;42.82
72525;BME280;60547;48.502;8.996;2023-06-14T07:59:17;97551.09;;;19.95;43.29
72525;BME280;60547;48.502;8.996;2023-06-14T08:01:43;97547.00;;;20.02;42.86
72525;BME280;60547;48.502;8.996;2023-06-14T08:04:13;97550.38;;;20.17;43.22
72525;BME280;60547;48.502;8.996;2023-06-14T08:06:38;97548.34;;;20.29;43.14
72525;BME280;60547;48.502;8.996;2023-06-14T08:09:04;97547.59;;;20.40;44.37
72525;BME280;60547;48.502;8.996;2023-06-14T08:11:31;97551.91;;;20.18;42.05
72525;BME280;60547;48.502;8.996;2023-06-14T08:13:56;97547.81;;;20.19;42.17
72525;BME280;60547;48.502;8.996;2023-06-14T08:16:22;97543.00;;;20.42;42.17
72525;BME280;60547;48.502;8.996;2023-06-14T08:18:48;97533.75;;;20.58;42.16
72525;BME280;60547;48.502;8.996;2023-06-14T08:21:14;97552.25;;;20.76;41.55
72525;BME280;60547;48.502;8.996;2023-06-14T08:23:40;97532.72;;;20.73;42.77
72525;BME280;60547;48.502;8.996;2023-06-14T08:26:09;97541.47;;;20.69;41.49
72525;BME280;60547;48.502;8.996;2023-06-14T08:28:34;97545.56;;;21.02;42.41
72525;BME280;60547;48.502;8.996;2023-06-14T08:31:00;97545.03;;;21.09;42.38
72525;BME280;60547;48.502;8.996;2023-06-14T08:33:25;97544.00;;;21.06;41.20
72525;BME280;60547;48.502;8.996;2023-06-14T08:35:51;97534.72;;;21.28;40.99
72525;BME280;60547;48.502;8.996;2023-06-14T08:38:16;97544.72;;;21.51;40.65
72525;BME280;60547;48.502;8.996;2023-06-14T08:40:42;97545.19;;;21.61;40.78
72525;BME280;60547;48.502;8.996;2023-06-14T08:43:07;97552.88;;;21.72;40.09
72525;BME280;60547;48.502;8.996;2023-06-14T08:45:33;97536.81;;;21.91;38.88
72525;BME280;60547;48.502;8.996;2023-06-14T08:47:59;97548.34;;;22.10;34.65
72525;BME280;60547;48.502;8.996;2023-06-14T08:50:25;97548.88;;;22.08;33.55
72525;BME280;60547;48.502;8.996;2023-06-14T08:52:56;97552.19;;;22.12;33.53
72525;BME280;60547;48.502;8.996;2023-06-14T08:55:26;97545.59;;;22.40;34.10
72525;BME280;60547;48.502;8.996;2023-06-14T08:57:56;97549.63;;;22.50;33.20
72525;BME280;60547;48.502;8.996;2023-06-14T09:00:25;97536.34;;;22.69;33.22
72525;BME280;60547;48.502;8.996;2023-06-14T09:02:52;97547.66;;;22.75;33.63
72525;BME280;60547;48.502;8.996;2023-06-14T09:05:24;97557.16;;;22.77;33.54
72525;BME280;60547;48.502;8.996;2023-06-14T09:07:49;97535.13;;;22.59;33.17
72525;BME280;60547;48.502;8.996;2023-06-14T09:10:15;97527.66;;;22.92;34.73
72525;BME280;60547;48.502;8.996;2023-06-14T09:12:41;97550.47;;;23.10;34.17
72525;BME280;60547;48.502;8.996;2023-06-14T09:15:10;97542.19;;;22.82;33.13
72525;BME280;60547;48.502;8.996;2023-06-14T09:17:36;97550.78;;;22.71;33.94
72525;BME280;60547;48.502;8.996;2023-06-14T09:20:03;97539.41;;;23.07;33.85
72525;BME280;60547;48.502;8.996;2023-06-14T09:22:36;97533.50;;;23.29;32.52
72525;BME280;60547;48.502;8.996;2023-06-14T09:25:03;97543.91;;;23.21;32.38
72525;BME280;60547;48.502;8.996;2023-06-14T09:27:29;97546.97;;;23.23;32.26
72525;BME280;60547;48.502;8.996;2023-06-14T09:29:55;97538.88;;;23.08;32.31
72525;BME280;60547;48.502;8.996;2023-06-14T09:32:21;97555.38;;;23.10;32.78
72525;BME280;60547;48.502;8.996;2023-06-14T09:34:48;97535.53;;;23.04;32.84
72525;BME280;60547;48.502;8.996;2023-06-14T09:37:27;97556.09;;;23.40;32.91
72525;BME280;60547;48.502;8.996;2023-06-14T09:39:52;97543.06;;;23.50;31.83
72525;BME280;60547;48.502;8.996;2023-06-14T09:42:18;97550.50;;;23.59;32.20
72525;BME280;60547;48.502;8.996;2023-06-14T09:44:48;97552.66;;;23.72;32.13
72525;BME280;60547;48.502;8.996;2023-06-14T09:47:17;97555.09;;;23.62;31.77
72525;BME280;60547;48.502;8.996;2023-06-14T09:49:43;97557.75;;;23.79;32.62
72525;BME280;60547;48.502;8.996;2023-06-14T09:52:15;97554.22;;;23.73;31.76
72525;BME280;60547;48.502;8.996;2023-06-14T09:54:43;97555.81;;;23.44;30.87
72525;BME280;60547;48.502;8.996;2023-06-14T09:57:10;97555.50;;;23.72;30.44
72525;BME280;60547;48.502;8.996;2023-06-14T09:59:40;97552.47;;;23.89;30.42
72525;BME280;60547;48.502;8.996;2023-06-14T10:02:11;97549.94;;;24.04;31.33
72525;BME280;60547;48.502;8.996;2023-06-14T10:04:44;97536.94;;;24.65;31.62
72525;BME280;60547;48.502;8.996;2023-06-14T10:07:15;97536.88;;;24.52;30.97
72525;BME280;60547;48.502;8.996;2023-06-14T10:09:42;97541.88;;;24.45;29.42
72525;BME280;60547;48.502;8.996;2023-06-14T10:12:14;97541.19;;;24.58;30.25
72525;BME280;60547;48.502;8.996;2023-06-14T10:14:49;97536.56;;;24.17;30.22
72525;BME280;60547;48.502;8.996;2023-06-14T10:20:28;97545.03;;;24.42;30.20
72525;BME280;60547;48.502;8.996;2023-06-14T10:23:11;97542.88;;;24.99;28.98
72525;BME280;60547;48.502;8.996;2023-06-14T10:25:38;97537.34;;;24.88;28.97
72525;BME280;60547;48.502;8.996;2023-06-14T10:28:20;97540.72;;;24.16;29.87
72525;BME280;60547;48.502;8.996;2023-06-14T10:31:04;97558.06;;;24.69;29.13
72525;BME280;60547;48.502;8.996;2023-06-14T10:33:30;97547.31;;;25.26;29.50
72525;BME280;60547;48.502;8.996;2023-06-14T10:39:00;97552.38;;;25.99;28.21
72525;BME280;60547;48.502;8.996;2023-06-14T10:41:29;97539.44;;;26.46;27.43
72525;BME280;60547;48.502;8.996;2023-06-14T10:46:40;97538.47;;;26.30;26.77
72525;BME280;60547;48.502;8.996;2023-06-14T10:49:05;97530.47;;;26.62;26.00
72525;BME280;60547;48.502;8.996;2023-06-14T10:51:39;97534.56;;;26.20;25.83
72525;BME280;60547;48.502;8.996;2023-06-14T10:54:13;97529.53;;;26.13;25.62
72525;BME280;60547;48.502;8.996;2023-06-14T10:56:54;97535.72;;;26.71;25.38
72525;BME280;60547;48.502;8.996;2023-06-14T10:59:20;97530.63;;;26.78;26.51
72525;BME280;60547;48.502;8.996;2023-06-14T11:04:52;97506.94;;;27.60;24.06
72525;BME280;60547;48.502;8.996;2023-06-14T11:12:49;97543.19;;;25.80;26.72
72525;BME280;60547;48.502;8.996;2023-06-14T11:15:16;97534.28;;;25.57;26.31
72525;BME280;60547;48.502;8.996;2023-06-14T11:17:51;97528.16;;;25.80;26.69
72525;BME280;60547;48.502;8.996;2023-06-14T11:20:19;97532.13;;;26.37;25.39
72525;BME280;60547;48.502;8.996;2023-06-14T11:22:45;97533.88;;;26.27;25.29
72525;BME280;60547;48.502;8.996;2023-06-14T11:25:11;97527.22;;;27.21;25.69
72525;BME280;60547;48.502;8.996;2023-06-14T11:27:37;97520.47;;;27.96;24.96
72525;BME280;60547;48.502;8.996;2023-06-14T11:30:06;97528.69;;;28.51;24.27
72525;BME280;60547;48.502;8.996;2023-06-14T11:32:32;97511.56;;;28.66;24.85
72525;BME280;60547;48.502;8.996;2023-06-14T11:34:57;97513.88;;;28.16;23.81
72525;BME280;60547;48.502;8.996;2023-06-14T11:37:26;97512.22;;;28.28;24.32
72525;BME280;60547;48.502;8.996;2023-06-14T11:39:57;97513.66;;;28.07;23.52
72525;BME280;60547;48.502;8.996;2023-06-14T11:42:23;97523.72;;;28.44;23.02
72525;BME280;60547;48.502;8.996;2023-06-14T11:44:53;97527.03;;;27.47;24.09
72525;BME280;60547;48.502;8.996;2023-06-14T11:47:18;97518.00;;;27.64;24.16
72525;BME280;60547;48.502;8.996;2023-06-14T11:49:44;97512.56;;;27.81;25.79
72525;BME280;60547;48.502;8.996;2023-06-14T11:52:11;97503.91;;;27.38;24.41
72525;BME280;60547;48.502;8.996;2023-06-14T11:54:37;97518.31;;;27.53;24.32
72525;BME280;60547;48.502;8.996;2023-06-14T11:57:03;97508.06;;;27.08;24.25
72525;BME280;60547;48.502;8.996;2023-06-14T11:59:30;97506.47;;;27.77;23.86
72525;BME280;60547;48.502;8.996;2023-06-14T12:01:56;97505.53;;;27.82;23.73
72525;BME280;60547;48.502;8.996;2023-06-14T12:04:26;97512.66;;;27.60;23.09
72525;BME280;60547;48.502;8.996;2023-06-14T12:06:52;97510.25;;;27.44;22.08
72525;BME280;60547;48.502;8.996;2023-06-14T12:09:21;97501.38;;;27.91;23.85
72525;BME280;60547;48.502;8.996;2023-06-14T12:11:49;97497.59;;;28.04;23.07
72525;BME280;60547;48.502;8.996;2023-06-14T12:14:14;97507.34;;;28.67;23.93
72525;BME280;60547;48.502;8.996;2023-06-14T12:16:40;97505.50;;;29.00;22.65
72525;BME280;60547;48.502;8.996;2023-06-14T12:19:16;97490.59;;;29.09;21.88
72525;BME280;60547;48.502;8.996;2023-06-14T12:21:46;97504.16;;;29.01;22.68
72525;BME280;60547;48.502;8.996;2023-06-14T12:24:13;97500.69;;;29.41;22.68
72525;BME280;60547;48.502;8.996;2023-06-14T12:26:39;97504.53;;;29.13;21.70
72525;BME280;60547;48.502;8.996;2023-06-14T12:29:06;97496.84;;;29.61;22.98
72525;BME280;60547;48.502;8.996;2023-06-14T12:31:35;97494.69;;;29.84;23.13
72525;BME280;60547;48.502;8.996;2023-06-14T12:34:01;97493.84;;;30.07;20.73
72525;BME280;60547;48.502;8.996;2023-06-14T12:36:26;97487.34;;;29.20;21.42
72525;BME280;60547;48.502;8.996;2023-06-14T12:38:52;97501.09;;;29.30;21.90
72525;BME280;60547;48.502;8.996;2023-06-14T12:41:21;97500.69;;;27.13;24.76
72525;BME280;60547;48.502;8.996;2023-06-14T12:43:48;97498.13;;;27.30;23.85
72525;BME280;60547;48.502;8.996;2023-06-14T12:46:13;97507.94;;;28.14;23.61
72525;BME280;60547;48.502;8.996;2023-06-14T12:48:39;97498.59;;;28.80;23.20
72525;BME280;60547;48.502;8.996;2023-06-14T12:51:04;97489.44;;;29.05;22.80
72525;BME280;60547;48.502;8.996;2023-06-14T12:53:30;97492.88;;;29.18;22.26
72525;BME280;60547;48.502;8.996;2023-06-14T12:55:55;97491.13;;;29.38;21.40
72525;BME280;60547;48.502;8.996;2023-06-14T12:58:21;97500.28;;;28.68;21.68
72525;BME280;60547;48.502;8.996;2023-06-14T13:00:49;97497.47;;;28.99;22.04
72525;BME280;60547;48.502;8.996;2023-06-14T13:03:14;97497.09;;;28.87;23.24
72525;BME280;60547;48.502;8.996;2023-06-14T13:05:40;97492.66;;;29.32;22.70
72525;BME280;60547;48.502;8.996;2023-06-14T13:08:07;97501.28;;;29.47;22.85
72525;BME280;60547;48.502;8.996;2023-06-14T13:10:34;97498.88;;;29.83;21.20
72525;BME280;60547;48.502;8.996;2023-06-14T13:13:00;97495.38;;;30.08;21.06
72525;BME280;60547;48.502;8.996;2023-06-14T13:15:26;97504.47;;;30.29;21.01